Time;durP1;ratioP1;P1;durP2;ratioP2;P2;SDS_P1;SDS_P2;PMS_P1;PMS_P2;Temp;Humidity;BMP_temperature;BMP_pressure;BME280_temperature;BME280_humidity;BME280_pressure;Samples;Min_cycle;Max_cycle;Signal;HPM_P1;HPM_P2
2023/11/13 00:03:23;;;;;;;;;;;6.70;99.90;;;;;;6712822;88;20163;-83
2023/11/13 00:13:23;;;;;;;;;;;6.80;99.90;;;;;;6711794;88;20079;-81
2023/11/13 00:23:24;;;;;;;;;;;6.80;99.90;;;;;;6737871;88;20055;-83
2023/11/13 00:33:25;;;;;;;;;;;6.80;99.90;;;;;;6747033;88;20060;-82
2023/11/13 00:43:25;;;;;;;;;;;6.80;99.90;;;;;;6747668;88;20060;-81
2023/11/13 00:53:26;;;;;;;;;;;6.80;99.90;;;;;;6748207;88;20082;-82
2023/11/13 01:03:26;;;;;;;;;;;6.90;99.90;;;;;;6745873;88;20124;-82
2023/11/13 01:13:27;;;;;;;;;;;6.90;99.90;;;;;;6750372;88;20113;-79
2023/11/13 01:23:27;;;;;;;;;;;6.90;99.90;;;;;;6692501;89;20033;-82
2023/11/13 01:33:28;;;;;;;;;;;6.90;99.90;;;;;;6689135;89;20094;-82
2023/11/13 01:43:28;;;;;;;;;;;7.10;99.90;;;;;;6689468;89;20047;-82
2023/11/13 01:53:29;;;;;;;;;;;7.10;99.90;;;;;;6732338;88;20054;-82
2023/11/13 02:03:31;;;;;;;;;;;7.10;99.90;;;;;;6742425;88;20062;-82
2023/11/13 02:13:32;;;;;;;;;;;7.10;99.90;;;;;;6741636;88;20073;-83
2023/11/13 02:23:32;;;;;;;;;;;7.00;99.90;;;;;;6743188;88;20130;-83
2023/11/13 02:33:33;;;;;;;;;;;7.00;99.90;;;;;;6742246;88;20078;-82
2023/11/13 02:43:33;;;;;;;;;;;7.00;99.90;;;;;;6734838;88;20722;-81
2023/11/13 02:53:34;;;;;;;;;;;7.20;99.90;;;;;;6734278;88;20083;-80
2023/11/13 03:03:34;;;;;;;;;;;7.20;99.90;;;;;;6735140;88;20041;-80
2023/11/13 03:13:34;;;;;;;;;;;7.20;99.90;;;;;;6735005;88;20046;-80
2023/11/13 03:23:35;;;;;;;;;;;7.10;99.90;;;;;;6734365;88;20052;-80
2023/11/13 03:33:35;;;;;;;;;;;7.10;99.90;;;;;;6733427;88;20051;-80
2023/11/13 03:43:36;;;;;;;;;;;7.10;99.90;;;;;;6735441;88;20062;-81
2023/11/13 03:53:38;;;;;;;;;;;7.00;99.90;;;;;;6734911;88;20078;-81
2023/11/13 04:03:38;;;;;;;;;;;7.00;99.90;;;;;;6744504;88;20095;-81
2023/11/13 04:13:38;;;;;;;;;;;7.00;99.90;;;;;;6734636;88;20176;-80
2023/11/13 04:23:39;;;;;;;;;;;7.10;99.90;;;;;;6732388;88;20120;-80
2023/11/13 04:33:40;;;;;;;;;;;7.10;99.90;;;;;;6695968;77;20095;-76
2023/11/13 04:43:42;;;;;;;;;;;7.10;99.90;;;;;;6638712;88;20081;-77
2023/11/13 04:53:42;;;;;;;;;;;7.20;99.90;;;;;;6647092;88;20152;-77
2023/11/13 05:03:43;;;;;;;;;;;7.30;99.90;;;;;;6655239;88;20103;-78
2023/11/13 05:13:43;;;;;;;;;;;7.40;99.90;;;;;;6643737;88;20204;-77
2023/11/13 05:23:44;;;;;;;;;;;7.50;99.90;;;;;;6646929;88;20101;-77
2023/11/13 05:33:44;;;;;;;;;;;7.60;99.90;;;;;;6649540;88;20250;-77
2023/11/13 05:43:45;;;;;;;;;;;7.70;99.90;;;;;;6644888;88;20289;-77
2023/11/13 05:53:45;;;;;;;;;;;7.70;99.90;;;;;;6651231;88;20115;-77
2023/11/13 06:03:46;;;;;;;;;;;7.80;99.90;;;;;;6649600;88;20122;-77
2023/11/13 06:13:46;;;;;;;;;;;7.90;99.90;;;;;;6644027;88;20083;-77
2023/11/13 06:23:47;;;;;;;;;;;7.90;99.90;;;;;;6660895;88;20122;-76
2023/11/13 06:33:47;;;;;;;;;;;8.00;99.90;;;;;;6698441;88;20085;-78
2023/11/13 06:43:48;;;;;;;;;;;8.50;99.90;;;;;;6728496;88;20670;-77
2023/11/13 06:53:48;;;;;;;;;;;8.60;99.90;;;;;;6730283;88;20062;-76
2023/11/13 07:03:49;;;;;;;;;;;8.40;99.90;;;;;;6730505;88;20066;-76
2023/11/13 07:13:50;;;;;;;;;;;8.10;99.90;;;;;;6733170;88;20071;-76
2023/11/13 07:23:50;;;;;;;;;;;8.10;99.90;;;;;;6741383;88;20097;-77
2023/11/13 07:33:51;;;;;;;;;;;8.20;99.90;;;;;;6733644;88;20083;-77
2023/11/13 07:43:54;;;;;;;;;;;8.60;99.90;;;;;;6729115;88;20137;-77
2023/11/13 07:53:54;;;;;;;;;;;8.80;99.90;;;;;;6731449;88;20159;-78
2023/11/13 08:03:55;;;;;;;;;;;8.80;99.90;;;;;;6730272;88;20050;-78
2023/11/13 08:13:55;;;;;;;;;;;8.60;99.90;;;;;;6723295;88;20126;-77
2023/11/13 08:23:56;;;;;;;;;;;8.50;99.90;;;;;;6725668;88;20051;-77
2023/11/13 08:33:56;;;;;;;;;;;8.50;99.90;;;;;;6728159;88;20634;-78
2023/11/13 08:43:57;;;;;;;;;;;8.50;99.90;;;;;;6727829;88;20072;-77
2023/11/13 08:54:00;;;;;;;;;;;8.50;99.90;;;;;;6721777;88;20046;-78
2023/11/13 09:04:00;;;;;;;;;;;8.50;99.90;;;;;;6725802;88;20058;-78
2023/11/13 09:14:00;;;;;;;;;;;8.60;99.90;;;;;;6729100;88;20059;-78
2023/11/13 09:24:02;;;;;;;;;;;8.80;99.90;;;;;;6724782;88;20074;-78
2023/11/13 09:34:07;;;;;;;;;;;9.00;99.90;;;;;;6722766;88;20078;-78
2023/11/13 09:44:07;;;;;;;;;;;9.10;99.90;;;;;;6726811;88;20072;-78
2023/11/13 09:54:08;;;;;;;;;;;9.40;99.90;;;;;;6724438;88;20108;-78
2023/11/13 10:04:09;;;;;;;;;;;9.50;99.90;;;;;;6721600;88;20070;-78
2023/11/13 10:14:11;;;;;;;;;;;9.50;99.90;;;;;;6725912;88;20169;-78
2023/11/13 10:24:16;;;;;;;;;;;9.60;99.90;;;;;;6728913;88;20100;-78
2023/11/13 10:44:24;;;;;;;;;;;9.80;99.90;;;;;;6713361;88;20099;-80
2023/11/13 10:54:25;;;;;;;;;;;10.10;99.90;;;;;;6710501;88;20061;-79
2023/11/13 11:04:27;;;;;;;;;;;10.20;99.90;;;;;;6711626;88;20067;-79
2023/11/13 11:14:35;;;;;;;;;;;10.30;99.90;;;;;;6712371;88;20078;-79
2023/11/13 11:24:57;;;;;;;;;;;10.50;99.90;;;;;;6718554;88;20077;-83
2023/11/13 11:35:02;;;;;;;;;;;10.60;99.90;;;;;;6724682;88;20092;-81
2023/11/13 11:45:06;;;;;;;;;;;10.70;99.90;;;;;;6700234;88;20064;-81
2023/11/13 11:55:12;;;;;;;;;;;10.80;99.90;;;;;;6696098;88;20077;-81
2023/11/13 12:05:14;;;;;;;;;;;11.00;99.90;;;;;;6695997;88;20650;-81
2023/11/13 12:15:14;;;;;;;;;;;11.30;99.90;;;;;;6696001;88;20063;-80
2023/11/13 12:25:15;;;;;;;;;;;11.60;99.90;;;;;;6711415;88;20225;-81
2023/11/13 12:35:19;;;;;;;;;;;11.50;99.90;;;;;;6703457;88;20228;-80
2023/11/13 12:45:20;;;;;;;;;;;11.50;99.90;;;;;;6695088;88;20086;-81
2023/11/13 12:55:27;;;;;;;;;;;11.70;99.90;;;;;;6693589;88;20103;-80
2023/11/13 13:05:27;;;;;;;;;;;11.90;99.90;;;;;;6692898;88;20628;-81
2023/11/13 13:15:28;;;;;;;;;;;12.30;99.90;;;;;;6693332;88;20056;-78
2023/11/13 13:25:34;;;;;;;;;;;12.70;99.90;;;;;;6693285;88;20507;-79
2023/11/13 13:35:36;;;;;;;;;;;13.20;99.90;;;;;;6692022;88;20068;-80
2023/11/13 13:45:40;;;;;;;;;;;13.60;99.90;;;;;;6692466;88;20568;-78
2023/11/13 13:55:42;;;;;;;;;;;13.80;99.90;;;;;;6691963;88;20068;-78
2023/11/13 14:05:45;;;;;;;;;;;14.00;99.90;;;;;;6689565;89;20068;-78
2023/11/13 14:15:49;;;;;;;;;;;14.40;99.90;;;;;;6690164;88;20506;-80
2023/11/13 14:25:52;;;;;;;;;;;14.60;99.90;;;;;;6686747;89;20553;-80
2023/11/13 14:35:52;;;;;;;;;;;15.00;99.90;;;;;;6707868;88;20068;-80
2023/11/13 14:45:54;;;;;;;;;;;15.10;99.90;;;;;;6706538;88;20059;-78
2023/11/13 14:55:54;;;;;;;;;;;15.30;99.90;;;;;;6705416;88;20079;-79
2023/11/13 15:05:56;;;;;;;;;;;15.30;99.90;;;;;;6708894;88;20193;-79
2023/11/13 15:15:57;;;;;;;;;;;15.40;99.90;;;;;;6708395;88;20491;-78
2023/11/13 15:25:58;;;;;;;;;;;15.60;99.90;;;;;;6709190;88;20079;-79
2023/11/13 15:35:59;;;;;;;;;;;15.50;99.90;;;;;;6710624;88;20662;-80
2023/11/13 15:45:59;;;;;;;;;;;15.50;99.90;;;;;;6721331;88;20182;-79
2023/11/13 15:56:00;;;;;;;;;;;15.40;99.90;;;;;;6716123;88;20047;-81
2023/11/13 16:06:03;;;;;;;;;;;15.40;99.90;;;;;;6712967;88;20058;-80
2023/11/13 16:16:04;;;;;;;;;;;15.30;99.90;;;;;;6720871;88;20169;-83
2023/11/13 16:26:05;;;;;;;;;;;14.50;99.90;;;;;;6721768;88;20062;-81
2023/11/13 16:36:05;;;;;;;;;;;14.00;99.90;;;;;;6706303;78;20088;-77
2023/11/13 16:46:06;;;;;;;;;;;14.00;99.90;;;;;;6663819;88;20100;-77
2023/11/13 16:56:07;;;;;;;;;;;14.00;99.90;;;;;;6711420;88;20121;-77
2023/11/13 17:06:07;;;;;;;;;;;13.90;99.90;;;;;;6715293;88;20059;-76
2023/11/13 17:16:08;;;;;;;;;;;13.80;99.90;;;;;;6705248;88;20189;-77
2023/11/13 17:26:08;;;;;;;;;;;13.90;99.90;;;;;;6723794;88;20078;-78
2023/11/13 17:36:10;;;;;;;;;;;13.50;99.90;;;;;;6720766;88;20185;-79
2023/11/13 17:46:11;;;;;;;;;;;13.20;99.90;;;;;;6693910;88;20606;-80
2023/11/13 17:56:11;;;;;;;;;;;13.40;99.90;;;;;;6725745;88;20083;-78
2023/11/13 18:06:12;;;;;;;;;;;13.30;99.90;;;;;;6711618;88;20520;-76
2023/11/13 18:16:14;;;;;;;;;;;13.40;99.90;;;;;;6715931;88;20105;-78
2023/11/13 18:26:14;;;;;;;;;;;13.10;99.90;;;;;;6709352;88;20063;-77
2023/11/13 18:36:15;;;;;;;;;;;13.30;99.90;;;;;;6709436;88;20067;-76
2023/11/13 18:46:16;;;;;;;;;;;13.00;99.90;;;;;;6699831;88;20111;-78
2023/11/13 18:56:17;;;;;;;;;;;12.90;99.90;;;;;;6708535;88;20209;-78
2023/11/13 19:06:18;;;;;;;;;;;12.60;99.90;;;;;;6703307;88;20140;-79
2023/11/13 19:16:19;;;;;;;;;;;12.60;99.90;;;;;;6717239;88;20161;-79
2023/11/13 19:26:20;;;;;;;;;;;12.50;99.90;;;;;;6718768;88;20128;-79
2023/11/13 19:36:21;;;;;;;;;;;12.40;99.90;;;;;;6704484;88;20098;-78
2023/11/13 19:46:22;;;;;;;;;;;12.40;99.90;;;;;;6686493;88;20067;-78
2023/11/13 19:56:23;;;;;;;;;;;12.40;99.90;;;;;;6722576;88;20067;-78
2023/11/13 20:06:26;;;;;;;;;;;12.20;99.90;;;;;;6683076;88;20571;-79
2023/11/13 20:16:27;;;;;;;;;;;12.30;99.90;;;;;;6719983;88;20388;-78
2023/11/13 20:26:28;;;;;;;;;;;12.20;99.90;;;;;;6721587;88;20533;-78
2023/11/13 20:36:28;;;;;;;;;;;12.30;99.90;;;;;;6723543;88;20062;-79
2023/11/13 20:46:29;;;;;;;;;;;12.20;99.90;;;;;;6720916;88;20064;-78
2023/11/13 20:56:30;;;;;;;;;;;12.00;99.90;;;;;;6720677;88;20059;-78
2023/11/13 21:06:31;;;;;;;;;;;12.00;99.90;;;;;;6706961;88;20086;-79
2023/11/13 21:16:31;;;;;;;;;;;12.10;99.90;;;;;;6717396;88;20253;-78
2023/11/13 21:26:32;;;;;;;;;;;11.90;99.90;;;;;;6719178;88;20094;-78
2023/11/13 21:36:32;;;;;;;;;;;11.90;99.90;;;;;;6702926;88;20109;-78
2023/11/13 21:46:33;;;;;;;;;;;11.80;99.90;;;;;;6681783;88;20073;-78
2023/11/13 21:56:33;;;;;;;;;;;11.80;99.90;;;;;;6711302;88;20077;-78
2023/11/13 22:06:34;;;;;;;;;;;11.60;99.90;;;;;;6723272;88;20084;-78
2023/11/13 22:16:34;;;;;;;;;;;11.70;99.90;;;;;;6688453;88;20198;-77
2023/11/13 22:26:34;;;;;;;;;;;11.60;99.90;;;;;;6717850;88;20154;-77
2023/11/13 22:46:57;;;;;;;;;;;11.80;99.90;;;;;;6750590;77;20083;-81
2023/11/13 22:56:58;;;;;;;;;;;11.70;99.90;;;;;;6670907;88;20604;-81
2023/11/13 23:06:59;;;;;;;;;;;11.70;99.90;;;;;;6668616;88;20064;-83
2023/11/13 23:16:59;;;;;;;;;;;11.70;99.90;;;;;;6672243;88;20064;-82
2023/11/13 23:27:00;;;;;;;;;;;11.50;99.90;;;;;;6669239;88;20067;-83
2023/11/13 23:37:01;;;;;;;;;;;11.70;99.90;;;;;;6670765;88;20196;-82
2023/11/13 23:47:02;;;;;;;;;;;11.80;99.90;;;;;;6671170;89;20125;-82
2023/11/13 23:57:03;;;;;;;;;;;11.80;99.90;;;;;;6670609;89;20061;-83
